Time;durP1;ratioP1;P1;durP2;ratioP2;P2;SDS_P1;SDS_P2;PMS_P1;PMS_P2;Temp;Humidity;BMP_temperature;BMP_pressure;BME280_temperature;BME280_humidity;BME280_pressure;Samples;Min_cycle;Max_cycle;Signal;HPM_P1;HPM_P2
2023/01/22 00:01:09;;;;;;;;;50.00;38.50;;;;;2.51;60.01;102852.31;5077179;28;45329;-48
2023/01/22 00:03:35;;;;;;;;;50.50;40.25;;;;;2.57;60.86;102857.41;5077534;28;45391;-48
2023/01/22 00:06:01;;;;;;;;;54.25;41.75;;;;;2.57;60.29;102851.28;5077555;28;45380;-49
2023/01/22 00:08:27;;;;;;;;;57.25;37.00;;;;;2.44;60.46;102827.13;5077041;28;45546;-47
2023/01/22 00:10:54;;;;;;;;;52.75;37.50;;;;;2.57;60.13;102848.66;5077172;28;45206;-47
2023/01/22 00:13:21;;;;;;;;;58.25;44.00;;;;;2.53;59.88;102845.28;5077344;28;45337;-47
2023/01/22 00:15:46;;;;;;;;;51.75;36.00;;;;;2.39;60.01;102826.38;5077299;28;45450;-47
2023/01/22 00:18:11;;;;;;;;;46.50;41.50;;;;;2.51;60.60;102839.19;5075860;28;45381;-46
2023/01/22 00:20:37;;;;;;;;;63.50;41.25;;;;;2.50;59.98;102838.31;5077199;28;45425;-47
2023/01/22 00:23:02;;;;;;;;;51.00;40.00;;;;;2.54;60.02;102854.00;5077375;28;45328;-47
2023/01/22 00:25:28;;;;;;;;;64.00;43.00;;;;;2.53;60.59;102850.53;5077069;28;45494;-47
2023/01/22 00:27:54;;;;;;;;;37.75;31.50;;;;;2.50;60.45;102842.72;5076984;28;45348;-47
2023/01/22 00:30:19;;;;;;;;;50.00;38.50;;;;;2.50;60.44;102843.56;5076862;28;45428;-46
2023/01/22 00:32:45;;;;;;;;;27.00;24.25;;;;;2.47;60.23;102838.41;5077221;28;45338;-46
2023/01/22 00:35:11;;;;;;;;;37.50;34.00;;;;;2.44;60.36;102835.00;5077177;28;45487;-46
2023/01/22 00:37:36;;;;;;;;;52.25;36.50;;;;;2.39;60.19;102839.53;5076765;28;45480;-50
2023/01/22 00:40:02;;;;;;;;;45.25;35.50;;;;;2.36;59.89;102843.13;5076796;28;45223;-49
2023/01/22 00:42:28;;;;;;;;;53.25;37.00;;;;;2.39;60.23;102847.41;5077246;28;45320;-48
2023/01/22 00:44:53;;;;;;;;;45.75;38.00;;;;;2.38;59.90;102840.44;5076998;28;45417;-47
2023/01/22 00:47:18;;;;;;;;;40.00;29.50;;;;;2.40;59.92;102851.75;5076780;28;45259;-49
2023/01/22 00:49:44;;;;;;;;;44.75;31.50;;;;;2.35;60.29;102849.25;5076778;28;45299;-47
2023/01/22 00:52:09;;;;;;;;;51.50;39.50;;;;;2.33;60.12;102850.22;5076705;28;45387;-48
2023/01/22 00:54:34;;;;;;;;;44.75;34.00;;;;;2.33;60.39;102839.72;5077076;28;45490;-46
2023/01/22 00:57:00;;;;;;;;;55.00;37.50;;;;;2.34;60.46;102839.66;5076431;28;47248;-49
2023/01/22 00:59:25;;;;;;;;;45.25;31.75;;;;;2.30;59.77;102831.91;5076662;28;45326;-49
2023/01/22 01:01:50;;;;;;;;;50.25;37.25;;;;;2.23;60.52;102820.69;5076589;28;45431;-46
2023/01/22 01:04:16;;;;;;;;;50.50;41.50;;;;;2.28;60.44;102831.09;5076876;28;45439;-48
2023/01/22 01:06:41;;;;;;;;;49.25;39.00;;;;;2.21;60.58;102823.38;5076282;28;46282;-48
2023/01/22 01:09:06;;;;;;;;;54.25;39.00;;;;;2.29;60.41;102835.44;5076426;28;45356;-46
2023/01/22 01:11:32;;;;;;;;;48.75;35.25;;;;;2.29;60.57;102825.78;5076621;28;45421;-47
2023/01/22 01:13:57;;;;;;;;;51.25;36.00;;;;;2.29;60.55;102823.16;5076673;28;45471;-47
2023/01/22 01:16:25;;;;;;;;;36.25;29.50;;;;;2.32;60.80;102816.94;5076144;28;47180;-46
2023/01/22 01:18:51;;;;;;;;;48.50;41.25;;;;;2.16;60.15;102798.16;5076148;28;45377;-48
2023/01/22 01:21:18;;;;;;;;;21.25;20.00;;;;;2.33;60.43;102827.44;5041400;28;45374;-45
2023/01/22 01:23:44;;;;;;;;;45.00;33.50;;;;;2.32;60.51;102822.19;5076265;28;45571;-46
2023/01/22 01:26:13;;;;;;;;;66.25;50.00;;;;;2.34;60.37;102825.66;5075978;28;46234;-47
2023/01/22 01:28:40;;;;;;;;;47.75;35.50;;;;;2.34;60.69;102830.91;5075914;28;45360;-46
2023/01/22 01:31:09;;;;;;;;;40.50;30.25;;;;;2.36;60.10;102834.34;5075336;28;45782;-47
2023/01/22 01:33:34;;;;;;;;;44.50;31.00;;;;;2.38;60.24;102837.81;5076653;28;45270;-45
2023/01/22 01:36:06;;;;;;;;;46.75;28.50;;;;;2.36;60.00;102845.75;5075765;28;47036;-47
2023/01/22 01:38:32;;;;;;;;;48.75;33.75;;;;;2.37;60.41;102851.84;5075969;28;45442;-50
2023/01/22 01:40:58;;;;;;;;;48.75;37.50;;;;;2.38;60.16;102848.31;5076232;28;45338;-48
2023/01/22 01:43:24;;;;;;;;;55.25;38.00;;;;;2.33;60.00;102837.94;5076411;28;45320;-47
2023/01/22 01:45:49;;;;;;;;;40.50;31.75;;;;;2.33;59.76;102839.72;5075922;28;45352;-46
2023/01/22 01:48:21;;;;;;;;;47.00;39.50;;;;;2.37;59.58;102846.59;5076121;28;45269;-47
2023/01/22 01:50:54;;;;;;;;;42.25;30.50;;;;;2.37;59.86;102839.56;5076414;28;45359;-47
2023/01/22 01:53:20;;;;;;;;;47.50;35.50;;;;;2.39;60.13;102834.28;5076348;28;45382;-50
2023/01/22 01:55:45;;;;;;;;;43.50;30.50;;;;;2.29;59.92;102827.56;5075200;28;45838;-47
2023/01/22 01:58:20;;;;;;;;;40.00;33.50;;;;;2.36;60.35;102839.59;5075985;28;45375;-48
2023/01/22 02:00:47;;;;;;;;;35.25;28.00;;;;;2.23;59.83;102805.81;5076018;28;45345;-48
2023/01/22 02:03:12;;;;;;;;;38.00;33.75;;;;;2.33;59.45;102835.31;5075998;28;45506;-46
2023/01/22 02:05:38;;;;;;;;;45.00;34.25;;;;;2.32;60.18;102827.47;5075820;28;45331;-47
2023/01/22 02:08:05;;;;;;;;;38.75;36.00;;;;;2.30;60.07;102810.91;5075773;28;45937;-46
2023/01/22 02:10:31;;;;;;;;;44.25;30.00;;;;;2.34;59.48;102825.66;5075871;28;45416;-46
2023/01/22 02:13:03;;;;;;;;;47.00;33.25;;;;;2.29;59.65;102825.78;5075968;28;45199;-47
2023/01/22 02:15:28;;;;;;;;;46.25;35.25;;;;;2.21;59.44;102822.50;5075521;28;45429;-47
2023/01/22 02:17:54;;;;;;;;;49.25;36.50;;;;;2.19;60.38;102833.06;5075714;28;45420;-48
2023/01/22 02:20:19;;;;;;;;;35.75;30.75;;;;;2.19;60.00;102840.06;5074884;28;45297;-47
2023/01/22 02:22:44;;;;;;;;;48.25;33.25;;;;;2.18;60.07;102849.72;5076249;28;45458;-46
2023/01/22 02:25:10;;;;;;;;;43.50;32.50;;;;;2.18;59.94;102836.56;5077711;28;46078;-48
2023/01/22 02:27:35;;;;;;;;;51.00;31.50;;;;;2.18;60.25;102822.59;5077175;28;45424;-48
2023/01/22 02:30:01;;;;;;;;;46.50;37.25;;;;;2.16;59.96;102848.91;5075707;28;45372;-49
2023/01/22 02:32:27;;;;;;;;;53.75;33.00;;;;;2.10;59.82;102840.31;5076482;28;45762;-48
2023/01/22 02:34:53;;;;;;;;;57.50;40.75;;;;;2.12;60.05;102841.16;5075748;28;45409;-45
2023/01/22 02:37:18;;;;;;;;;51.00;38.75;;;;;2.06;60.00;102834.28;5075329;28;45343;-48
2023/01/22 02:39:44;;;;;;;;;39.00;35.00;;;;;2.08;59.71;102835.13;5075648;28;45487;-49
2023/01/22 02:42:09;;;;;;;;;54.50;36.25;;;;;2.08;60.35;102837.75;5077346;28;45555;-46
2023/01/22 02:44:35;;;;;;;;;39.00;33.75;;;;;2.10;60.25;102832.44;5078815;28;46059;-47
2023/01/22 02:47:00;;;;;;;;;52.00;32.50;;;;;2.10;60.15;102835.91;5078500;28;45423;-46
2023/01/22 02:49:25;;;;;;;;;38.50;35.00;;;;;2.09;60.19;102830.72;5078921;28;45513;-46
2023/01/22 02:51:51;;;;;;;;;55.50;38.00;;;;;2.06;60.01;102842.16;5079068;28;45471;-46
2023/01/22 02:54:16;;;;;;;;;45.75;38.00;;;;;2.08;60.48;102839.50;5078671;28;46075;-46
2023/01/22 02:56:42;;;;;;;;;45.00;36.25;;;;;2.09;60.30;102835.97;5078681;28;45408;-49
2023/01/22 02:59:07;;;;;;;;;49.25;34.50;;;;;2.08;60.52;102834.25;5078566;28;45347;-48
2023/01/22 03:01:33;;;;;;;;;52.75;39.75;;;;;2.09;60.18;102842.06;5078988;28;45242;-49
2023/01/22 03:04:09;;;;;;;;;40.00;30.50;;;;;2.11;60.40;102839.44;5078302;28;46356;-50
2023/01/22 03:06:36;;;;;;;;;49.00;36.00;;;;;2.15;60.63;102833.16;5078227;28;45271;-46
2023/01/22 03:09:01;;;;;;;;;53.75;40.00;;;;;2.16;60.17;102835.78;5078406;28;45281;-47
2023/01/22 03:11:28;;;;;;;;;55.75;40.50;;;;;2.14;60.48;102824.44;5078580;28;45425;-47
2023/01/22 03:22:08;;;;;;;;;50.00;42.00;;;;;2.13;60.18;102835.00;5078791;28;45477;-47
2023/01/22 03:24:33;;;;;;;;;55.25;39.50;;;;;2.13;60.47;102830.59;5076679;28;47534;-47
2023/01/22 03:26:58;;;;;;;;;56.00;39.50;;;;;2.14;60.69;102829.69;5078336;28;45388;-47
2023/01/22 03:29:24;;;;;;;;;57.00;42.75;;;;;2.17;60.36;102831.38;5078126;28;45443;-50
2023/01/22 03:31:49;;;;;;;;;51.00;38.00;;;;;2.17;60.08;102824.34;5078378;28;45427;-48
2023/01/22 03:34:16;;;;;;;;;53.75;41.25;;;;;2.17;60.15;102826.13;5077810;28;46116;-47
2023/01/22 03:36:41;;;;;;;;;56.00;39.50;;;;;2.13;60.47;102812.22;5077782;28;45408;-49
2023/01/22 03:39:07;;;;;;;;;42.25;35.50;;;;;2.18;60.21;102820.81;5059933;28;45387;-47
2023/01/22 03:41:32;;;;;;;;;56.75;40.00;;;;;2.14;60.32;102821.81;5078228;28;45586;-47
2023/01/22 03:44:00;;;;;;;;;42.00;30.75;;;;;2.17;60.58;102819.09;5077136;28;46210;-49
2023/01/22 03:46:26;;;;;;;;;50.00;38.00;;;;;2.13;59.84;102824.47;5077996;28;45412;-47
2023/01/22 03:48:52;;;;;;;;;58.75;42.50;;;;;2.14;60.15;102818.31;5077766;28;45333;-46
2023/01/22 03:51:18;;;;;;;;;62.75;41.00;;;;;2.15;60.37;102831.44;5077863;28;45381;-46
2023/01/22 03:53:45;;;;;;;;;50.00;44.00;;;;;2.06;60.10;102829.03;5058746;28;45501;-46
2023/01/22 03:56:15;;;;;;;;;50.00;39.25;;;;;2.14;60.10;102841.94;5077792;28;45430;-48
2023/01/22 03:58:40;;;;;;;;;44.00;41.50;;;;;2.14;60.11;102844.56;5077955;28;45286;-47
2023/01/22 04:01:09;;;;;;;;;54.00;40.25;;;;;2.11;59.90;102840.28;5078054;28;45254;-46
2023/01/22 04:03:35;;;;;;;;;64.25;44.50;;;;;2.10;59.91;102846.41;5077471;28;46356;-46
2023/01/22 04:06:01;;;;;;;;;46.25;36.25;;;;;2.13;60.45;102833.22;5077698;28;45396;-46
2023/01/22 04:08:29;;;;;;;;;42.50;32.50;;;;;2.14;60.07;102832.31;5077898;28;45432;-48
2023/01/22 04:10:55;;;;;;;;;42.25;34.50;;;;;2.15;59.93;102826.19;5077847;28;45288;-50
2023/01/22 04:13:22;;;;;;;;;57.50;34.50;;;;;1.97;60.58;102800.41;5077394;28;46358;-47
2023/01/22 04:15:47;;;;;;;;;40.00;30.25;;;;;2.14;60.41;102823.56;5077583;28;45440;-46
2023/01/22 04:18:12;;;;;;;;;38.25;30.50;;;;;2.08;60.30;102816.75;5077715;28;45422;-46
2023/01/22 04:20:38;;;;;;;;;42.50;35.75;;;;;2.09;60.21;102823.69;5077646;28;45293;-45
2023/01/22 04:23:04;;;;;;;;;47.50;30.25;;;;;2.05;59.97;102815.94;5077354;28;45916;-48
2023/01/22 04:25:29;;;;;;;;;40.75;29.00;;;;;1.94;60.02;102805.75;5077583;28;45917;-46
2023/01/22 04:27:54;;;;;;;;;38.50;34.00;;;;;2.00;60.01;102816.94;5077312;28;45677;-47
2023/01/22 04:30:20;;;;;;;;;50.50;31.50;;;;;1.97;60.38;102803.88;5077812;28;45971;-46
2023/01/22 04:32:45;;;;;;;;;39.25;32.50;;;;;1.94;60.12;102811.00;5077021;28;46033;-49
2023/01/22 04:35:11;;;;;;;;;46.00;26.50;;;;;1.88;60.30;102822.50;5077056;28;45340;-47
2023/01/22 04:37:36;;;;;;;;;39.25;24.75;;;;;1.83;60.19;102815.66;5077098;28;45400;-47
2023/01/22 04:40:04;;;;;;;;;46.75;33.00;;;;;1.77;60.56;102818.44;5077431;28;45373;-46
2023/01/22 04:42:30;;;;;;;;;44.75;36.25;;;;;1.71;60.51;102815.06;5077303;28;46369;-47
2023/01/22 04:44:56;;;;;;;;;36.50;25.25;;;;;1.67;60.65;102815.19;5077809;28;45159;-49
2023/01/22 04:47:21;;;;;;;;;41.25;26.50;;;;;1.66;60.38;102818.72;5077844;28;45292;-49
2023/01/22 04:49:46;;;;;;;;;35.00;26.75;;;;;1.62;61.01;102814.44;5077791;28;45497;-47
2023/01/22 04:52:12;;;;;;;;;32.50;26.50;;;;;1.65;60.73;102799.50;5077962;28;47033;-47
2023/01/22 04:54:37;;;;;;;;;44.25;27.75;;;;;1.67;60.59;102800.28;5078109;28;45254;-49
2023/01/22 04:57:02;;;;;;;;;29.75;23.50;;;;;1.66;60.90;102795.09;5077842;28;45503;-47
2023/01/22 04:59:28;;;;;;;;;34.50;26.75;;;;;1.66;60.81;102798.59;5077290;28;45284;-48
2023/01/22 05:01:53;;;;;;;;;52.00;31.25;;;;;1.65;60.97;102788.13;5076867;28;45951;-49
2023/01/22 05:04:20;;;;;;;;;38.75;30.50;;;;;1.47;60.95;102774.56;5076000;28;45543;-47
2023/01/22 05:06:46;;;;;;;;;32.75;28.25;;;;;1.59;60.85;102797.00;5076295;28;45300;-46
2023/01/22 05:09:12;;;;;;;;;40.75;25.50;;;;;1.56;60.92;102799.72;5076977;28;45367;-46
2023/01/22 05:11:37;;;;;;;;;40.00;32.00;;;;;1.54;61.28;102795.41;5076628;28;45307;-49
2023/01/22 05:14:02;;;;;;;;;36.25;27.75;;;;;1.53;61.38;102786.69;5077036;28;45690;-46
2023/01/22 05:16:28;;;;;;;;;31.25;28.00;;;;;1.50;61.67;102784.13;5077543;28;45364;-47
2023/01/22 05:18:53;;;;;;;;;33.25;27.50;;;;;1.49;61.81;102783.28;5076790;28;45467;-47
2023/01/22 05:21:18;;;;;;;;;37.25;27.75;;;;;1.49;61.86;102785.91;5076591;28;46484;-49
2023/01/22 05:23:43;;;;;;;;;33.25;22.75;;;;;1.54;61.79;102777.03;5075524;28;45372;-46
2023/01/22 05:26:09;;;;;;;;;46.75;29.50;;;;;1.57;61.61;102780.47;5076659;28;45255;-47
2023/01/22 05:28:35;;;;;;;;;35.00;25.25;;;;;1.61;61.51;102776.84;5076643;28;45370;-46
2023/01/22 05:31:00;;;;;;;;;34.75;26.00;;;;;1.66;61.30;102780.22;5076195;28;46801;-48
2023/01/22 05:33:30;;;;;;;;;32.25;28.25;;;;;1.63;61.80;102764.53;5076361;28;45214;-47
2023/01/22 05:35:59;;;;;;;;;41.00;26.50;;;;;1.68;62.06;102775.78;5075507;28;45418;-46
2023/01/22 05:38:25;;;;;;;;;53.75;34.00;;;;;1.72;61.58;102776.56;5075247;28;45557;-49
2023/01/22 05:40:50;;;;;;;;;36.25;27.00;;;;;1.64;61.42;102749.66;5076006;28;46119;-47
2023/01/22 05:43:16;;;;;;;;;41.25;25.50;;;;;1.79;61.12;102780.75;5076345;28;45500;-47
2023/01/22 05:45:41;;;;;;;;;41.75;28.50;;;;;1.84;61.43;102773.63;5058224;28;45526;-48
2023/01/22 05:48:07;;;;;;;;;27.75;27.75;;;;;1.87;61.70;102776.16;5076352;28;45432;-48
2023/01/22 05:50:32;;;;;;;;;34.75;27.00;;;;;1.88;61.67;102764.75;5075798;28;45467;-47
2023/01/22 05:52:57;;;;;;;;;34.25;27.75;;;;;1.95;61.37;102768.97;5075765;28;50926;-49
2023/01/22 05:55:22;;;;;;;;;45.50;30.00;;;;;2.00;61.49;102768.81;5076151;28;45290;-49
2023/01/22 05:57:48;;;;;;;;;36.00;24.50;;;;;2.05;60.94;102773.94;5076108;28;45519;-46
2023/01/22 06:00:14;;;;;;;;;40.50;30.00;;;;;2.01;60.77;102749.53;5075835;28;46380;-46
2023/01/22 06:02:39;;;;;;;;;51.50;33.25;;;;;2.11;60.99;102766.78;5075740;28;45272;-48
2023/01/22 06:05:05;;;;;;;;;43.50;32.50;;;;;2.13;61.08;102775.47;5076017;28;45494;-47
2023/01/22 06:07:30;;;;;;;;;38.50;31.00;;;;;2.07;60.99;102756.41;5076131;28;45376;-47
2023/01/22 06:09:56;;;;;;;;;31.25;25.00;;;;;2.19;60.84;102779.66;5075618;28;46295;-47
2023/01/22 06:12:21;;;;;;;;;44.00;29.25;;;;;2.17;60.74;102766.59;5075903;28;45360;-48
2023/01/22 06:14:47;;;;;;;;;45.50;28.25;;;;;2.23;61.13;102776.06;5076084;28;45409;-48
2023/01/22 06:17:13;;;;;;;;;28.75;20.75;;;;;2.12;60.65;102760.63;5059997;28;45462;-47
2023/01/22 06:19:38;;;;;;;;;40.50;27.50;;;;;2.22;61.25;102780.44;5078491;28;45332;-49
2023/01/22 06:22:03;;;;;;;;;42.50;23.25;;;;;2.25;60.69;102776.88;5079418;28;45281;-49
2023/01/22 06:24:29;;;;;;;;;40.75;31.75;;;;;2.25;60.87;102769.88;5079544;28;45280;-48
2023/01/22 06:26:55;;;;;;;;;27.50;27.50;;;;;2.18;61.45;102763.06;5079665;28;45540;-48
2023/01/22 06:29:20;;;;;;;;;36.75;28.50;;;;;2.23;61.35;102771.69;5079120;28;45960;-47
2023/01/22 06:31:45;;;;;;;;;34.50;27.75;;;;;2.29;60.58;102782.91;5079159;28;45217;-50
2023/01/22 06:34:11;;;;;;;;;37.75;30.50;;;;;2.23;61.41;102774.31;5079080;28;45337;-48
2023/01/22 06:36:36;;;;;;;;;35.25;27.25;;;;;2.21;61.44;102772.63;5079210;28;45238;-47
2023/01/22 06:39:02;;;;;;;;;37.75;25.50;;;;;2.23;61.64;102776.94;5078936;28;46014;-46
2023/01/22 06:41:27;;;;;;;;;41.50;30.50;;;;;2.24;61.60;102777.81;5078920;28;45187;-47
2023/01/22 06:43:53;;;;;;;;;37.50;29.25;;;;;2.29;61.68;102780.28;5079075;28;45316;-49
2023/01/22 06:46:18;;;;;;;;;40.50;32.00;;;;;2.30;61.59;102790.75;5079533;28;45668;-46
2023/01/22 06:48:45;;;;;;;;;49.00;34.50;;;;;2.19;61.91;102763.91;5078755;28;45414;-48
2023/01/22 06:51:10;;;;;;;;;39.00;30.25;;;;;2.27;61.40;102780.31;5078755;28;45534;-48
2023/01/22 06:53:35;;;;;;;;;45.75;35.50;;;;;2.24;61.82;102788.31;5078929;28;45738;-45
2023/01/22 06:56:01;;;;;;;;;38.25;32.75;;;;;2.27;62.25;102792.59;5079191;28;45320;-48
2023/01/22 06:58:27;;;;;;;;;42.75;33.50;;;;;2.18;62.34;102781.44;5078611;28;46093;-46
2023/01/22 07:00:52;;;;;;;;;40.50;31.50;;;;;2.24;62.40;102797.03;5078761;28;45399;-46
2023/01/22 07:03:17;;;;;;;;;41.00;33.00;;;;;2.24;62.30;102796.19;5077742;28;45411;-48
2023/01/22 07:05:43;;;;;;;;;39.50;30.25;;;;;2.24;62.31;102796.19;5078609;28;45325;-45
2023/01/22 07:08:13;;;;;;;;;39.50;30.00;;;;;2.18;62.40;102796.34;5078105;28;46463;-46
2023/01/22 07:10:39;;;;;;;;;40.00;33.75;;;;;2.24;62.65;102810.16;5078449;28;45454;-45
2023/01/22 07:13:06;;;;;;;;;38.00;28.50;;;;;2.25;62.45;102808.41;5078574;28;45282;-47
2023/01/22 07:15:32;;;;;;;;;45.00;28.50;;;;;2.25;62.44;102803.16;5078592;28;45338;-46
2023/01/22 07:17:57;;;;;;;;;38.75;29.00;;;;;2.25;63.11;102800.53;5078377;28;45399;-47
2023/01/22 07:20:23;;;;;;;;;55.25;37.75;;;;;2.24;62.75;102801.44;5078229;28;45316;-46
2023/01/22 07:22:50;;;;;;;;;43.25;34.00;;;;;2.27;62.93;102805.72;5078592;28;45361;-46
2023/01/22 07:25:15;;;;;;;;;43.75;32.50;;;;;2.25;62.85;102809.25;5078626;28;45568;-49
2023/01/22 07:27:41;;;;;;;;;43.75;35.75;;;;;2.29;62.83;102827.56;5077493;28;45445;-46
2023/01/22 07:30:07;;;;;;;;;41.75;31.25;;;;;2.30;63.05;102821.41;5077851;28;45431;-50
2023/01/22 07:32:32;;;;;;;;;57.50;41.75;;;;;2.31;63.00;102829.22;5078422;28;45396;-47
2023/01/22 07:34:57;;;;;;;;;50.75;35.00;;;;;2.30;63.16;102830.13;5078186;28;45754;-46
2023/01/22 07:37:23;;;;;;;;;42.25;34.50;;;;;2.36;62.89;102843.13;5077788;28;45960;-47
2023/01/22 07:39:48;;;;;;;;;37.75;29.00;;;;;2.38;63.06;102853.56;5078157;28;45341;-48
2023/01/22 07:42:13;;;;;;;;;34.50;21.25;;;;;2.37;63.27;102851.84;5078188;28;45459;-48
2023/01/22 07:44:41;;;;;;;;;34.75;31.25;;;;;2.39;62.76;102836.91;5078305;28;45459;-47
2023/01/22 07:47:07;;;;;;;;;46.00;32.50;;;;;2.40;63.46;102843.88;5077809;28;46354;-47
2023/01/22 07:49:33;;;;;;;;;33.25;26.75;;;;;2.39;63.29;102832.50;5077606;28;45302;-47
2023/01/22 07:51:58;;;;;;;;;43.25;27.50;;;;;2.45;62.75;102847.25;5077904;28;45577;-48
2023/01/22 07:54:24;;;;;;;;;47.00;34.75;;;;;2.46;62.79;102844.56;5078045;28;45364;-48
2023/01/22 07:56:49;;;;;;;;;46.75;35.25;;;;;2.46;63.35;102835.84;5059555;28;47614;-47
2023/01/22 07:59:14;;;;;;;;;39.00;29.00;;;;;2.41;62.95;102843.00;5076847;28;45405;-47
2023/01/22 08:01:40;;;;;;;;;33.50;26.25;;;;;2.36;63.46;102829.09;5077753;28;45389;-47
2023/01/22 08:04:05;;;;;;;;;41.50;31.00;;;;;2.29;63.46;102838.94;5078002;28;45359;-47
2023/01/22 08:06:30;;;;;;;;;46.25;31.75;;;;;2.22;63.34;102843.47;5077845;28;46105;-46
2023/01/22 08:08:58;;;;;;;;;37.00;25.50;;;;;2.21;63.61;102852.25;5078191;28;45420;-48
2023/01/22 08:11:24;;;;;;;;;45.00;34.00;;;;;2.18;63.48;102848.84;5077530;28;45471;-48
2023/01/22 08:13:49;;;;;;;;;41.00;30.25;;;;;2.23;63.68;102846.94;5070178;27;45417;-46
2023/01/22 08:16:14;;;;;;;;;43.25;36.00;;;;;2.22;63.81;102843.47;5060305;27;45459;-47
2023/01/22 08:18:40;;;;;;;;;39.75;28.00;;;;;2.24;63.89;102860.06;5071910;27;45494;-45
2023/01/22 08:21:05;;;;;;;;;37.50;28.25;;;;;2.30;63.92;102852.91;5081204;27;45508;-49
2023/01/22 08:23:31;;;;;;;;;43.50;33.75;;;;;2.34;63.51;102857.19;5076094;28;45503;-48
2023/01/22 08:26:02;;;;;;;;;37.50;30.00;;;;;2.37;63.83;102857.97;5077116;28;45992;-46
2023/01/22 08:28:27;;;;;;;;;41.75;30.00;;;;;2.32;64.07;102854.59;5077375;28;45237;-49
2023/01/22 08:31:00;;;;;;;;;41.75;24.25;;;;;2.42;63.40;102860.47;5077139;28;45634;-48
2023/01/22 08:33:26;;;;;;;;;38.25;26.00;;;;;2.49;63.44;102872.53;5079130;27;46432;-48
2023/01/22 08:35:52;;;;;;;;;33.75;27.50;;;;;2.38;63.53;102843.06;5076427;28;47218;-47
2023/01/22 08:38:17;;;;;;;;;43.25;35.50;;;;;2.53;63.29;102878.53;5076926;28;45191;-48
2023/01/22 08:40:43;;;;;;;;;39.25;26.50;;;;;2.52;63.19;102871.56;5077040;28;45643;-46
2023/01/22 08:43:08;;;;;;;;;44.50;33.50;;;;;2.52;63.18;102872.44;5076939;28;45274;-46
2023/01/22 08:45:33;;;;;;;;;36.50;29.00;;;;;2.48;63.67;102852.41;5076660;28;49433;-47
2023/01/22 08:47:59;;;;;;;;;31.50;24.50;;;;;2.59;63.05;102873.13;5076633;28;47055;-47
2023/01/22 08:50:26;;;;;;;;;38.75;27.75;;;;;2.45;63.41;102860.38;5076416;28;45342;-48
2023/01/22 08:52:51;;;;;;;;;26.50;24.50;;;;;2.53;62.97;102873.28;5077050;28;45421;-46
2023/01/22 08:55:16;;;;;;;;;35.25;27.50;;;;;2.45;62.98;102855.13;5076893;28;46933;-47
2023/01/22 08:57:42;;;;;;;;;41.75;33.00;;;;;2.50;63.21;102882.13;5076623;28;45728;-47
2023/01/22 09:00:08;;;;;;;;;45.25;30.50;;;;;2.49;63.56;102883.91;5076396;28;45411;-49
2023/01/22 09:02:33;;;;;;;;;35.75;28.00;;;;;2.54;63.16;102890.78;5075506;28;45383;-48
2023/01/22 09:04:58;;;;;;;;;32.25;24.00;;;;;2.62;62.93;102894.06;5076402;28;46250;-49
2023/01/22 09:07:24;;;;;;;;;29.25;27.00;;;;;2.67;63.01;102887.78;5074716;28;45656;-48
2023/01/22 09:09:49;;;;;;;;;35.25;25.00;;;;;2.72;62.69;102890.25;5075735;28;45428;-48
2023/01/22 09:12:15;;;;;;;;;41.75;27.50;;;;;2.73;62.57;102889.34;5076030;28;45483;-48
2023/01/22 09:14:40;;;;;;;;;28.75;23.50;;;;;2.79;62.68;102883.94;5057663;28;47071;-46
2023/01/22 09:17:05;;;;;;;;;43.00;33.25;;;;;2.81;62.16;102879.50;5075511;28;45508;-47
2023/01/22 09:19:31;;;;;;;;;39.25;27.75;;;;;2.78;62.74;102873.44;5076126;28;45302;-47
2023/01/22 09:21:56;;;;;;;;;46.25;40.25;;;;;2.85;62.40;102864.50;5075807;28;45297;-47
2023/01/22 09:24:21;;;;;;;;;40.00;33.75;;;;;2.85;62.62;102869.75;5075505;28;46916;-47
2023/01/22 09:26:47;;;;;;;;;37.25;27.00;;;;;2.87;62.75;102874.06;5075669;28;45444;-47
2023/01/22 09:29:12;;;;;;;;;36.50;27.00;;;;;2.88;62.50;102881.03;5075620;28;45313;-46
2023/01/22 09:31:37;;;;;;;;;41.25;27.25;;;;;2.88;62.22;102880.19;5075675;28;45357;-47
2023/01/22 09:34:03;;;;;;;;;28.00;24.75;;;;;2.89;62.75;102887.16;5075124;28;46274;-50
2023/01/22 09:36:29;;;;;;;;;37.00;30.75;;;;;2.90;62.49;102891.50;5075622;28;45690;-46
2023/01/22 09:38:54;;;;;;;;;34.75;25.50;;;;;2.93;61.75;102883.53;5075448;28;45549;-46
2023/01/22 09:41:26;;;;;;;;;36.75;28.00;;;;;3.06;62.02;102903.28;5075805;28;45393;-47
2023/01/22 09:44:00;;;;;;;;;35.50;26.25;;;;;3.16;61.79;102902.13;5075456;28;46190;-47
2023/01/22 09:46:35;;;;;;;;;53.00;31.50;;;;;3.25;61.33;102886.06;5075169;28;45340;-48
2023/01/22 09:49:13;;;;;;;;;40.25;31.50;;;;;3.17;62.04;102869.66;5075106;28;45443;-46
2023/01/22 09:51:38;;;;;;;;;40.75;27.50;;;;;3.30;61.52;102900.84;5075049;28;45319;-49
2023/01/22 09:54:07;;;;;;;;;30.50;27.00;;;;;3.28;61.34;102903.50;5083120;27;46391;-47
2023/01/22 09:56:44;;;;;;;;;41.75;34.25;;;;;3.27;61.69;102912.31;5075167;28;45636;-47
2023/01/22 09:59:16;;;;;;;;;28.75;22.50;;;;;3.27;61.51;102914.09;5074967;28;45455;-50
2023/01/22 10:01:46;;;;;;;;;29.25;27.50;;;;;3.29;61.62;102910.50;5077189;27;45807;-47
2023/01/22 10:04:24;;;;;;;;;33.50;26.50;;;;;3.29;61.95;102912.25;5074297;28;46021;-47
2023/01/22 10:06:53;;;;;;;;;24.25;23.00;;;;;3.32;61.16;102909.53;5074941;28;45417;-47
2023/01/22 10:09:19;;;;;;;;;37.75;27.00;;;;;3.31;61.97;102910.44;5074971;28;45471;-49
2023/01/22 10:11:50;;;;;;;;;22.50;19.50;;;;;3.29;61.64;102912.25;5075432;28;45214;-45
2023/01/22 10:14:19;;;;;;;;;34.75;25.25;;;;;3.26;61.37;102921.13;5074819;28;46121;-50
2023/01/22 10:16:44;;;;;;;;;24.25;20.00;;;;;3.20;61.41;102911.66;5075268;28;45471;-46
2023/01/22 10:19:26;;;;;;;;;22.00;18.25;;;;;3.20;61.86;102914.28;5074927;28;45367;-47
2023/01/22 10:22:01;;;;;;;;;36.75;28.00;;;;;3.20;62.01;102902.88;5075259;28;45337;-46
2023/01/22 10:24:27;;;;;;;;;32.00;24.75;;;;;3.21;62.18;102891.47;5074346;28;46294;-45
2023/01/22 10:26:54;;;;;;;;;33.50;27.75;;;;;3.11;62.13;102876.84;5074811;28;45734;-46
2023/01/22 10:29:33;;;;;;;;;39.00;23.25;;;;;3.20;62.01;102887.09;5074604;28;45539;-49
2023/01/22 10:32:00;;;;;;;;;39.25;28.00;;;;;3.23;61.64;102882.59;5075339;28;45519;-46
2023/01/22 10:34:35;;;;;;;;;41.00;23.50;;;;;3.22;61.64;102888.78;5074824;28;46128;-47
2023/01/22 10:37:14;;;;;;;;;22.50;17.75;;;;;3.20;61.80;102898.50;5074655;28;45404;-46
2023/01/22 10:39:42;;;;;;;;;22.50;19.00;;;;;3.16;61.87;102888.97;5074758;27;45431;-47
2023/01/22 10:42:17;;;;;;;;;35.25;26.00;;;;;3.11;62.17;102885.59;5074410;28;45467;-49
2023/01/22 10:44:42;;;;;;;;;37.00;27.00;;;;;3.18;62.15;102891.56;5074696;28;46182;-46
2023/01/22 10:47:19;;;;;;;;;36.25;25.25;;;;;3.17;62.55;102881.94;5074245;28;45350;-48
2023/01/22 10:49:45;;;;;;;;;41.50;25.00;;;;;3.20;62.18;102890.63;5074649;28;45528;-47
2023/01/22 10:52:31;;;;;;;;;35.00;24.50;;;;;3.18;62.00;102881.03;5074666;28;45422;-46
2023/01/22 10:54:58;;;;;;;;;38.25;28.75;;;;;3.11;61.43;102869.81;5074792;28;45362;-48
2023/01/22 10:57:33;;;;;;;;;31.50;25.25;;;;;3.20;62.55;102898.50;5074417;28;45471;-48
2023/01/22 11:00:13;;;;;;;;;35.50;30.00;;;;;3.22;62.35;102895.81;5075123;28;45450;-47
2023/01/22 11:02:44;;;;;;;;;38.00;29.25;;;;;3.23;62.29;102892.28;5074890;28;45436;-46
2023/01/22 11:05:22;;;;;;;;;30.75;24.00;;;;;3.26;62.10;102886.94;5077481;28;45888;-45
2023/01/22 11:07:56;;;;;;;;;34.25;23.50;;;;;3.29;62.19;102875.44;5077963;28;45539;-47
2023/01/22 11:10:44;;;;;;;;;34.00;26.00;;;;;3.29;62.18;102878.06;5077819;28;45456;-45
2023/01/22 11:13:22;;;;;;;;;36.50;23.75;;;;;3.32;61.63;102870.94;5067461;28;45427;-45
2023/01/22 11:16:09;;;;;;;;;32.50;23.50;;;;;3.33;61.71;102880.56;5077850;28;45407;-45
2023/01/22 11:18:39;;;;;;;;;26.50;19.75;;;;;3.34;62.00;102869.13;5077554;28;45417;-46
2023/01/22 11:21:14;;;;;;;;;29.25;22.00;;;;;3.33;61.96;102869.16;5078200;28;45433;-46
2023/01/22 11:23:52;;;;;;;;;29.75;23.00;;;;;3.35;61.42;102878.75;5077700;28;45525;-47